Time;durP1;ratioP1;P1;durP2;ratioP2;P2;SDS_P1;SDS_P2;PMS_P1;PMS_P2;Temp;Humidity;BMP_temperature;BMP_pressure;BME280_temperature;BME280_humidity;BME280_pressure;Samples;Min_cycle;Max_cycle;Signal;HPM_P1;HPM_P2
2022/03/29 00:02:00;;;;;;;48.28;24.38;;;12.00;58.10;;;;;;5019170;28;20026;-76
2022/03/29 00:04:26;;;;;;;52.70;24.48;;;12.00;58.40;;;;;;5031715;28;20034;-76
2022/03/29 00:06:53;;;;;;;48.40;23.30;;;12.00;58.40;;;;;;5031675;28;20189;-76
2022/03/29 00:09:19;;;;;;;49.13;23.67;;;11.90;58.50;;;;;;5031749;28;20374;-76
2022/03/29 00:11:45;;;;;;;51.70;23.50;;;11.90;58.60;;;;;;5031873;28;20404;-76
2022/03/29 00:14:12;;;;;;;49.38;24.27;;;11.90;58.70;;;;;;5013677;28;20556;-77
2022/03/29 00:17:28;;;;;;;49.33;23.20;;;11.90;58.80;;;;;;5013839;28;20043;-77
2022/03/29 00:19:53;;;;;;;53.20;24.27;;;11.90;58.90;;;;;;5031460;28;20101;-77
2022/03/29 00:22:19;;;;;;;45.85;23.27;;;11.80;59.10;;;;;;5031820;28;20113;-76
2022/03/29 00:24:45;;;;;;;50.05;25.02;;;11.80;59.20;;;;;;5031568;28;20104;-76
2022/03/29 00:27:11;;;;;;;48.58;24.38;;;11.80;59.30;;;;;;5031619;28;20029;-76
2022/03/29 00:29:37;;;;;;;51.17;24.95;;;11.80;59.50;;;;;;5031696;28;20035;-77
2022/03/29 00:32:04;;;;;;;48.30;23.77;;;11.80;59.70;;;;;;5046365;28;20025;-76
2022/03/29 00:34:29;;;;;;;49.42;23.95;;;11.80;59.50;;;;;;5051509;28;20025;-77
2022/03/29 00:36:55;;;;;;;51.85;24.60;;;11.70;59.70;;;;;;5053484;28;20556;-77
2022/03/29 00:39:21;;;;;;;49.88;24.23;;;11.70;59.90;;;;;;5052635;28;20176;-77
2022/03/29 00:41:47;;;;;;;51.22;24.70;;;11.70;60.10;;;;;;5037982;28;20382;-77
2022/03/29 00:44:16;;;;;;;50.65;24.50;;;11.60;60.20;;;;;;5031567;28;20552;-76
2022/03/29 00:46:41;;;;;;;48.75;24.30;;;11.60;60.20;;;;;;5031363;28;20065;-76
2022/03/29 00:49:07;;;;;;;49.42;23.50;;;11.60;60.50;;;;;;5031350;28;20067;-76
2022/03/29 00:51:34;;;;;;;56.78;26.58;;;11.60;61.30;;;;;;5031616;28;20024;-77
2022/03/29 00:54:00;;;;;;;49.03;23.45;;;11.60;60.80;;;;;;5031459;28;20085;-77
2022/03/29 00:56:26;;;;;;;52.28;24.45;;;11.60;60.60;;;;;;5031343;28;20493;-76
2022/03/29 00:58:52;;;;;;;49.65;23.95;;;11.60;60.60;;;;;;5032314;28;20018;-77
2022/03/29 01:01:18;;;;;;;47.83;23.83;;;11.60;60.80;;;;;;5034968;28;20025;-77
2022/03/29 01:03:45;;;;;;;46.63;23.27;;;11.50;60.80;;;;;;5034885;28;20104;-77
2022/03/29 01:06:11;;;;;;;50.88;24.73;;;11.50;61.00;;;;;;5035131;28;20393;-77
2022/03/29 01:08:37;;;;;;;49.80;23.77;;;11.50;61.00;;;;;;5034738;28;20037;-77
2022/03/29 01:11:06;;;;;;;49.95;24.75;;;11.50;61.10;;;;;;5016946;28;20425;-77
2022/03/29 01:13:32;;;;;;;45.95;24.38;;;11.50;61.10;;;;;;5034864;28;20105;-76
2022/03/29 01:17:38;;;;;;;48.67;24.05;;;11.50;61.10;;;;;;5034872;28;20022;-77
2022/03/29 01:18:45;;;;;;;53.25;25.08;;;11.50;61.10;;;;;;5034276;28;20486;-77
2022/03/29 01:21:16;;;;;;;46.33;22.55;;;11.50;61.10;;;;;;5034710;28;20032;-77
2022/03/29 01:23:45;;;;;;;55.50;26.80;;;11.50;61.10;;;;;;5034611;28;20025;-77
2022/03/29 01:26:12;;;;;;;51.30;23.80;;;11.50;61.20;;;;;;5034612;28;20022;-76
2022/03/29 01:28:38;;;;;;;54.03;24.80;;;11.50;61.30;;;;;;5034314;28;20033;-77
2022/03/29 01:31:04;;;;;;;51.05;23.90;;;11.40;61.50;;;;;;5016291;28;20121;-76
2022/03/29 01:33:31;;;;;;;42.20;22.92;;;11.40;61.40;;;;;;5034345;28;20087;-77
2022/03/29 01:35:57;;;;;;;43.63;21.92;;;11.40;61.50;;;;;;5034187;28;20032;-77
2022/03/29 01:38:23;;;;;;;53.20;25.38;;;11.40;61.60;;;;;;5034590;28;20389;-77
2022/03/29 01:40:49;;;;;;;52.03;25.00;;;11.40;61.40;;;;;;5016538;28;20045;-77
2022/03/29 01:43:14;;;;;;;53.45;26.17;;;11.40;61.50;;;;;;5034382;28;20025;-77
2022/03/29 01:45:40;;;;;;;47.50;23.73;;;11.40;61.60;;;;;;5034767;28;20026;-77
2022/03/29 01:48:06;;;;;;;49.20;23.35;;;11.30;61.70;;;;;;5016792;28;20433;-77
2022/03/29 01:50:32;;;;;;;46.78;24.70;;;11.30;62.00;;;;;;5034290;28;20108;-77
2022/03/29 01:52:58;;;;;;;49.88;24.63;;;11.20;62.20;;;;;;5034475;28;20104;-77
2022/03/29 01:55:24;;;;;;;52.58;25.20;;;11.20;62.30;;;;;;5034302;28;20080;-77
2022/03/29 01:57:50;;;;;;;52.55;25.60;;;11.10;62.20;;;;;;5034377;28;20029;-77
2022/03/29 02:00:33;;;;;;;51.15;25.38;;;11.20;62.30;;;;;;5034425;28;20029;-77
2022/03/29 02:03:01;;;;;;;52.58;26.05;;;11.10;62.30;;;;;;5034864;28;20381;-77
2022/03/29 02:05:27;;;;;;;51.58;23.95;;;11.10;62.60;;;;;;5034849;28;20041;-77
2022/03/29 02:07:52;;;;;;;50.97;24.98;;;11.10;62.60;;;;;;5035113;28;20053;-76
2022/03/29 02:10:22;;;;;;;48.85;24.35;;;11.10;62.60;;;;;;5016363;28;20088;-76
2022/03/29 02:12:49;;;;;;;49.67;23.85;;;11.10;62.60;;;;;;5035066;28;20034;-76
2022/03/29 02:15:15;;;;;;;46.67;23.25;;;11.10;62.40;;;;;;5034090;28;20601;-76
2022/03/29 02:17:42;;;;;;;49.10;23.85;;;11.10;62.20;;;;;;5033849;28;20036;-77
2022/03/29 02:20:09;;;;;;;47.38;23.33;;;11.10;62.30;;;;;;5016235;28;20458;-76
2022/03/29 02:22:34;;;;;;;47.10;22.83;;;11.10;62.10;;;;;;5033688;28;20021;-76
2022/03/29 02:25:00;;;;;;;43.22;22.75;;;11.10;62.10;;;;;;5033687;28;20084;-77
2022/03/29 02:27:26;;;;;;;48.80;23.17;;;11.10;62.10;;;;;;5015866;28;20076;-76
2022/03/29 02:29:53;;;;;;;54.33;25.30;;;11.00;62.10;;;;;;5033508;28;20026;-77
2022/03/29 02:32:18;;;;;;;48.83;22.88;;;11.00;62.50;;;;;;5033241;28;20389;-76
2022/03/29 02:34:47;;;;;;;51.17;24.50;;;11.00;62.50;;;;;;5033759;28;20029;-77
2022/03/29 02:37:13;;;;;;;49.42;22.65;;;10.90;62.30;;;;;;5017757;28;20393;-76
2022/03/29 02:39:40;;;;;;;52.88;24.92;;;10.90;62.50;;;;;;5015463;28;20586;-76
2022/03/29 02:42:07;;;;;;;45.92;22.40;;;10.90;62.70;;;;;;5032998;28;20124;-76
2022/03/29 02:44:33;;;;;;;44.60;22.02;;;10.90;62.50;;;;;;5033471;28;20025;-76
2022/03/29 02:46:59;;;;;;;44.13;22.13;;;10.90;62.50;;;;;;5033268;28;20033;-77
2022/03/29 02:49:25;;;;;;;45.35;22.25;;;10.90;62.50;;;;;;5033022;28;20393;-76
2022/03/29 02:51:52;;;;;;;52.42;23.10;;;10.80;63.40;;;;;;5033167;28;20029;-76
2022/03/29 02:54:19;;;;;;;53.47;25.10;;;10.80;63.40;;;;;;5015086;28;20033;-76
2022/03/29 02:56:45;;;;;;;46.05;23.70;;;10.80;62.70;;;;;;5032678;28;20021;-77
2022/03/29 02:59:11;;;;;;;46.55;21.83;;;10.70;62.50;;;;;;5015217;28;20461;-76
2022/03/29 03:01:37;;;;;;;45.45;23.00;;;10.80;62.40;;;;;;5032856;28;20021;-76
2022/03/29 03:04:03;;;;;;;44.50;22.42;;;10.80;62.60;;;;;;5032686;28;20026;-76
2022/03/29 03:06:29;;;;;;;47.13;22.75;;;10.80;62.50;;;;;;5032927;28;20044;-76
2022/03/29 03:08:54;;;;;;;45.08;22.55;;;10.80;62.50;;;;;;5032825;28;20029;-76
2022/03/29 03:11:20;;;;;;;53.80;26.38;;;10.80;63.30;;;;;;5014733;28;20025;-76
2022/03/29 03:13:46;;;;;;;48.53;23.58;;;10.80;63.80;;;;;;5032835;28;20037;-76
2022/03/29 03:16:12;;;;;;;53.03;24.08;;;10.80;64.60;;;;;;5032276;28;20080;-77
2022/03/29 03:18:38;;;;;;;54.33;25.48;;;10.70;65.00;;;;;;5032600;28;20029;-77
2022/03/29 03:21:04;;;;;;;52.50;25.33;;;10.70;65.70;;;;;;5032492;28;20104;-76
2022/03/29 03:23:30;;;;;;;60.22;26.42;;;10.70;66.20;;;;;;5032122;28;20023;-76
2022/03/29 03:25:56;;;;;;;52.83;26.00;;;10.70;66.70;;;;;;5032137;28;20025;-76
2022/03/29 03:28:22;;;;;;;54.17;26.42;;;10.60;67.10;;;;;;5014892;28;20033;-76
2022/03/29 03:30:48;;;;;;;57.80;26.88;;;10.60;67.70;;;;;;5027546;28;20383;-76
2022/03/29 03:33:13;;;;;;;53.72;27.88;;;10.50;67.50;;;;;;5013455;28;20057;-76
2022/03/29 03:35:39;;;;;;;47.88;26.77;;;10.50;67.10;;;;;;5032144;28;20029;-77
2022/03/29 03:38:08;;;;;;;52.58;26.42;;;10.50;67.10;;;;;;5032127;28;20549;-77
2022/03/29 03:40:34;;;;;;;53.97;26.63;;;10.40;67.70;;;;;;5017157;28;20045;-77
2022/03/29 03:43:03;;;;;;;54.30;26.85;;;10.40;68.60;;;;;;5051997;28;20025;-77
2022/03/29 03:45:30;;;;;;;54.90;26.67;;;10.40;68.90;;;;;;5052191;28;20053;-77
2022/03/29 03:47:55;;;;;;;54.47;27.25;;;10.40;68.90;;;;;;5051669;28;20024;-77
2022/03/29 03:50:21;;;;;;;49.42;26.00;;;10.30;69.00;;;;;;5051859;28;20044;-77
2022/03/29 03:52:49;;;;;;;48.85;25.30;;;10.20;68.80;;;;;;5052023;28;20056;-77
2022/03/29 03:55:15;;;;;;;57.47;27.92;;;10.10;68.70;;;;;;5033739;28;20480;-77
2022/03/29 03:57:41;;;;;;;47.53;26.17;;;10.10;69.50;;;;;;5051884;28;20036;-77
2022/03/29 04:00:07;;;;;;;53.28;26.20;;;10.00;69.70;;;;;;5051781;28;20025;-77
2022/03/29 04:02:33;;;;;;;51.60;26.77;;;9.90;69.40;;;;;;5051736;28;20024;-77
2022/03/29 04:04:59;;;;;;;55.97;27.50;;;9.90;69.90;;;;;;5051859;28;20435;-77
2022/03/29 04:07:25;;;;;;;55.42;26.60;;;9.90;70.30;;;;;;5051684;28;20033;-77
2022/03/29 04:09:50;;;;;;;46.55;25.55;;;9.80;70.50;;;;;;5051463;28;20021;-77
2022/03/29 04:12:16;;;;;;;54.88;25.58;;;9.80;70.80;;;;;;5051551;28;20052;-77
2022/03/29 04:14:42;;;;;;;59.03;28.02;;;9.80;70.80;;;;;;5033728;28;20385;-76
2022/03/29 04:17:10;;;;;;;50.92;23.95;;;9.70;71.00;;;;;;5051874;28;20029;-76
2022/03/29 04:19:36;;;;;;;50.42;25.77;;;9.50;70.10;;;;;;5051602;28;20374;-77
2022/03/29 04:22:02;;;;;;;50.22;27.67;;;9.50;71.10;;;;;;5033468;28;20416;-77
2022/03/29 04:24:28;;;;;;;51.67;25.55;;;9.40;71.50;;;;;;5051567;28;20021;-77
2022/03/29 04:26:54;;;;;;;47.20;25.05;;;9.40;71.30;;;;;;5033541;28;20029;-77
2022/03/29 04:29:20;;;;;;;50.35;26.60;;;9.30;71.80;;;;;;5055406;28;20107;-77
2022/03/29 04:31:46;;;;;;;57.88;27.23;;;9.30;72.60;;;;;;5058787;28;20072;-77
2022/03/29 04:34:11;;;;;;;49.92;25.23;;;9.30;72.90;;;;;;5052716;28;20025;-77
2022/03/29 04:36:37;;;;;;;52.13;25.17;;;9.20;72.70;;;;;;5055290;28;20029;-77
2022/03/29 04:39:03;;;;;;;50.90;25.42;;;9.10;73.10;;;;;;5037655;28;20080;-77
2022/03/29 04:41:28;;;;;;;51.45;25.05;;;9.00;73.60;;;;;;5054916;28;20582;-77
2022/03/29 04:43:55;;;;;;;46.25;24.42;;;8.90;73.70;;;;;;5055439;28;20460;-77
2022/03/29 04:46:20;;;;;;;48.92;24.80;;;8.80;74.40;;;;;;5055585;28;20021;-77
2022/03/29 04:48:46;;;;;;;56.17;26.63;;;9.00;75.00;;;;;;5055282;28;20037;-77
2022/03/29 04:51:12;;;;;;;55.30;26.55;;;9.00;75.00;;;;;;5037394;28;20036;-77
2022/03/29 04:53:38;;;;;;;48.03;25.55;;;9.10;74.90;;;;;;5036835;28;20036;-77
2022/03/29 04:56:05;;;;;;;51.28;24.63;;;9.00;73.80;;;;;;5054883;28;20496;-77
2022/03/29 04:58:32;;;;;;;55.58;24.90;;;9.00;74.10;;;;;;5055014;28;20045;-77
2022/03/29 05:00:58;;;;;;;45.65;24.50;;;8.80;75.30;;;;;;5048989;28;20061;-77
2022/03/29 05:03:24;;;;;;;51.95;26.50;;;8.80;76.00;;;;;;5035155;28;20045;-76
2022/03/29 05:05:50;;;;;;;59.67;25.88;;;8.80;76.90;;;;;;5034960;28;20053;-76
2022/03/29 05:08:16;;;;;;;48.00;25.85;;;8.80;77.00;;;;;;5034873;28;20116;-76
2022/03/29 05:10:41;;;;;;;53.72;25.90;;;8.80;77.20;;;;;;5017124;28;20041;-76
2022/03/29 05:13:09;;;;;;;49.65;25.08;;;8.80;77.20;;;;;;5034791;28;20494;-77
2022/03/29 05:15:35;;;;;;;51.58;25.25;;;8.90;76.50;;;;;;5017047;28;20501;-76
2022/03/29 05:18:01;;;;;;;50.03;25.88;;;8.90;76.50;;;;;;5034639;28;20045;-77
2022/03/29 05:20:27;;;;;;;54.20;25.98;;;8.80;76.20;;;;;;5016792;28;20448;-76
2022/03/29 05:22:55;;;;;;;48.97;26.15;;;8.70;77.50;;;;;;5017051;28;20049;-76
2022/03/29 05:25:23;;;;;;;59.45;27.88;;;8.60;78.70;;;;;;5016758;28;20041;-76
2022/03/29 05:27:49;;;;;;;59.03;29.10;;;8.60;79.20;;;;;;5034749;28;20120;-77
2022/03/29 05:30:15;;;;;;;57.60;28.25;;;8.60;79.50;;;;;;5034545;28;20017;-77
2022/03/29 05:32:41;;;;;;;65.15;28.25;;;8.70;79.90;;;;;;5054457;28;20082;-77
2022/03/29 05:35:08;;;;;;;56.55;28.63;;;8.80;80.30;;;;;;5053631;28;20025;-77
2022/03/29 05:37:35;;;;;;;60.83;27.98;;;8.90;80.40;;;;;;5054207;28;20621;-77
2022/03/29 05:40:02;;;;;;;58.20;27.77;;;8.90;81.00;;;;;;5054267;28;20047;-77
2022/03/29 05:42:29;;;;;;;56.00;28.83;;;8.90;81.20;;;;;;5054131;28;20512;-76
2022/03/29 05:44:54;;;;;;;55.38;27.98;;;8.90;81.10;;;;;;5053808;28;20435;-76
2022/03/29 05:50:04;;;;;;;69.60;33.60;;;9.00;87.40;;;;;;5054540;28;20040;-77
2022/03/29 05:52:30;;;;;;;69.07;35.30;;;9.00;90.30;;;;;;5054003;28;20064;-76
2022/03/29 05:54:57;;;;;;;75.45;35.88;;;9.10;90.80;;;;;;5036025;28;20060;-77
2022/03/29 05:57:23;;;;;;;74.95;35.83;;;9.10;91.40;;;;;;5053852;28;20107;-77
2022/03/29 05:59:49;;;;;;;79.55;37.40;;;9.10;92.40;;;;;;5053846;28;20029;-77
2022/03/29 06:02:15;;;;;;;84.63;39.30;;;9.10;92.70;;;;;;5053402;28;20108;-77
2022/03/29 06:04:40;;;;;;;80.10;36.72;;;9.10;93.80;;;;;;5053791;28;20021;-77
2022/03/29 06:07:07;;;;;;;79.20;37.60;;;9.20;94.40;;;;;;5053616;28;20029;-77
2022/03/29 06:09:34;;;;;;;84.97;38.83;;;9.20;95.00;;;;;;5053494;28;20029;-77
2022/03/29 06:12:01;;;;;;;95.88;40.97;;;9.20;96.80;;;;;;5035628;28;20036;-77
2022/03/29 06:14:26;;;;;;;86.47;41.08;;;9.20;97.50;;;;;;5035222;28;20039;-77
2022/03/29 06:16:52;;;;;;;88.53;41.55;;;9.20;98.40;;;;;;5035560;28;20127;-77
2022/03/29 06:19:19;;;;;;;92.13;42.42;;;9.20;99.90;;;;;;5036923;28;20029;-77
2022/03/29 06:21:44;;;;;;;88.80;41.60;;;9.30;99.90;;;;;;5036577;28;20025;-77
2022/03/29 06:24:11;;;;;;;97.53;41.53;;;9.30;99.90;;;;;;5054409;28;20052;-77
2022/03/29 06:26:39;;;;;;;95.07;42.95;;;9.30;99.90;;;;;;5054617;28;20036;-77
2022/03/29 06:29:06;;;;;;;100.22;43.67;;;9.40;99.90;;;;;;5036579;28;20024;-77
2022/03/29 06:31:32;;;;;;;98.38;42.53;;;9.40;99.90;;;;;;5054421;28;20503;-77
2022/03/29 06:33:58;;;;;;;94.15;43.10;;;9.40;99.90;;;;;;5054519;28;20033;-77
2022/03/29 06:36:23;;;;;;;93.80;41.80;;;9.30;99.90;;;;;;5036624;28;20473;-76
2022/03/29 06:38:49;;;;;;;100.60;44.65;;;9.30;99.90;;;;;;5054325;28;20036;-76
2022/03/29 06:41:15;;;;;;;88.05;41.83;;;9.40;99.90;;;;;;5036226;28;20049;-76
2022/03/29 06:43:41;;;;;;;91.57;42.65;;;9.40;99.90;;;;;;5054257;28;20029;-76
2022/03/29 06:46:09;;;;;;;88.55;42.38;;;9.40;99.90;;;;;;5054236;28;20025;-76
2022/03/29 06:48:38;;;;;;;87.30;44.25;;;9.40;99.90;;;;;;5054233;28;20095;-77
2022/03/29 06:51:04;;;;;;;94.30;44.97;;;9.50;99.90;;;;;;5053858;28;20028;-77
2022/03/29 06:53:30;;;;;;;86.25;41.20;;;9.40;99.90;;;;;;5052793;28;20110;-77
2022/03/29 06:55:56;;;;;;;85.53;42.42;;;9.50;99.90;;;;;;5053344;28;20029;-77
2022/03/29 06:58:22;;;;;;;88.40;42.53;;;9.50;99.90;;;;;;5050999;28;20032;-77
2022/03/29 07:00:48;;;;;;;83.45;43.42;;;9.50;99.90;;;;;;5051164;28;20497;-77
2022/03/29 07:03:14;;;;;;;84.60;42.40;;;9.60;99.90;;;;;;5052515;28;20029;-77
2022/03/29 07:05:42;;;;;;;88.57;43.50;;;9.60;99.90;;;;;;5052177;28;20558;-77
2022/03/29 07:08:11;;;;;;;92.88;43.80;;;9.60;99.90;;;;;;5052589;28;20024;-77
2022/03/29 07:13:22;;;;;;;99.35;43.63;;;9.50;99.90;;;;;;5054082;28;20433;-77
2022/03/29 07:15:51;;;;;;;93.45;45.22;;;9.60;99.90;;;;;;5034895;28;20111;-77
2022/03/29 07:18:17;;;;;;;89.90;43.03;;;9.60;99.90;;;;;;5052842;28;20029;-77
2022/03/29 07:20:43;;;;;;;89.75;44.45;;;9.70;99.90;;;;;;5053407;28;20021;-77
2022/03/29 07:23:09;;;;;;;97.55;45.88;;;9.80;99.90;;;;;;5053537;28;20021;-77
2022/03/29 07:25:36;;;;;;;94.68;44.70;;;9.80;99.90;;;;;;5053477;28;20025;-77
2022/03/29 07:28:02;;;;;;;95.35;44.22;;;9.70;99.90;;;;;;5053585;28;20646;-77
2022/03/29 07:30:29;;;;;;;93.25;44.42;;;9.80;99.90;;;;;;5053333;28;20521;-77
2022/03/29 07:32:59;;;;;;;95.72;44.25;;;9.70;99.90;;;;;;5053415;28;20029;-77
2022/03/29 07:35:28;;;;;;;99.40;44.25;;;9.80;99.90;;;;;;5034694;28;20086;-77
2022/03/29 07:37:55;;;;;;;89.05;41.97;;;9.90;99.90;;;;;;5052747;28;20389;-77
2022/03/29 07:40:24;;;;;;;90.82;43.30;;;10.10;99.90;;;;;;5034361;28;20567;-77
2022/03/29 07:42:50;;;;;;;90.22;43.45;;;10.10;99.90;;;;;;5052908;28;20082;-77
2022/03/29 07:45:17;;;;;;;91.38;41.25;;;10.20;99.90;;;;;;5052779;28;20021;-77
2022/03/29 07:47:44;;;;;;;93.63;44.03;;;10.20;99.90;;;;;;5052904;28;20083;-77
2022/03/29 07:50:12;;;;;;;88.13;41.60;;;10.30;99.90;;;;;;5051243;28;20021;-77
2022/03/29 07:52:39;;;;;;;85.47;41.78;;;10.20;99.90;;;;;;5049880;28;20033;-77
2022/03/29 07:55:07;;;;;;;87.22;42.38;;;10.30;99.90;;;;;;5050413;28;20108;-72
2022/03/29 07:57:34;;;;;;;93.53;40.78;;;10.40;99.90;;;;;;5031971;28;20148;-72
2022/03/29 08:00:31;;;;;;;84.30;42.22;;;10.40;99.90;;;;;;5031769;28;20029;-72
2022/03/29 08:02:46;;;;;;;87.07;41.08;;;10.50;99.90;;;;;;5049819;28;20067;-72
2022/03/29 08:05:11;;;;;;;89.32;41.10;;;10.50;99.90;;;;;;5050315;28;20057;-72
2022/03/29 08:07:37;;;;;;;80.10;39.13;;;10.60;99.90;;;;;;5051395;28;20052;-72
2022/03/29 08:10:03;;;;;;;81.93;39.05;;;10.70;99.90;;;;;;5051197;28;20083;-72
2022/03/29 08:12:29;;;;;;;71.93;35.67;;;10.70;99.90;;;;;;5051509;28;20033;-72
2022/03/29 08:14:55;;;;;;;80.45;39.88;;;10.70;99.90;;;;;;5033401;28;20025;-72
2022/03/29 08:17:20;;;;;;;77.32;39.25;;;10.70;99.90;;;;;;5051049;28;20025;-73
2022/03/29 08:19:46;;;;;;;81.57;39.03;;;10.70;99.90;;;;;;5033363;28;20021;-73
2022/03/29 08:22:12;;;;;;;76.18;36.90;;;10.70;99.90;;;;;;5050945;28;20078;-72
2022/03/29 08:24:38;;;;;;;81.40;38.63;;;10.80;99.90;;;;;;5053534;28;20052;-72
2022/03/29 08:27:05;;;;;;;84.47;39.70;;;10.90;99.90;;;;;;5033448;28;20036;-73
2022/03/29 08:29:30;;;;;;;86.15;40.40;;;11.00;99.90;;;;;;5050940;28;20485;-72
2022/03/29 08:31:56;;;;;;;84.78;40.72;;;11.00;99.90;;;;;;5051108;28;20040;-73
2022/03/29 08:34:22;;;;;;;91.40;41.88;;;11.10;99.90;;;;;;5051018;28;20037;-72
2022/03/29 08:36:49;;;;;;;90.53;40.63;;;11.00;99.90;;;;;;5050969;28;20024;-73
2022/03/29 08:39:15;;;;;;;83.18;41.20;;;11.10;99.90;;;;;;5033088;28;20029;-72
2022/03/29 08:41:58;;;;;;;96.50;41.70;;;11.20;99.90;;;;;;5050820;28;20508;-73
2022/03/29 08:44:25;;;;;;;;;;;11.20;99.90;;;;;;5051441;28;20448;-73
2022/03/29 08:46:51;;;;;;;82.45;38.58;;;11.30;99.90;;;;;;5050821;28;19905;-72
2022/03/29 08:49:18;;;;;;;87.85;41.30;;;11.40;99.90;;;;;;5050985;28;20029;-72
2022/03/29 08:51:45;;;;;;;86.35;40.95;;;11.40;99.90;;;;;;5050916;28;20052;-72
2022/03/29 08:54:12;;;;;;;82.25;40.33;;;11.50;99.90;;;;;;5050453;28;20087;-72
2022/03/29 08:56:39;;;;;;;83.35;40.13;;;11.50;99.90;;;;;;5050748;28;20025;-72
2022/03/29 08:59:05;;;;;;;79.60;38.38;;;11.50;99.90;;;;;;5050911;28;20049;-72
2022/03/29 09:01:32;;;;;;;84.28;39.53;;;11.60;99.90;;;;;;5050600;28;20484;-72
2022/03/29 09:04:14;;;;;;;83.10;39.33;;;11.60;99.90;;;;;;5032912;28;20086;-72
2022/03/29 09:06:58;;;;;;;;;;;11.70;99.90;;;;;;5051284;28;20091;-72
2022/03/29 09:09:33;;;;;;;82.70;38.05;;;11.80;99.90;;;;;;5050871;28;19905;-72
2022/03/29 09:12:18;;;;;;;77.72;38.28;;;11.80;99.90;;;;;;5050570;28;20025;-72
2022/03/29 09:14:54;;;;;;;81.93;39.10;;;11.90;99.90;;;;;;5050989;28;20476;-72
2022/03/29 09:17:32;;;;;;;83.57;40.55;;;12.00;99.90;;;;;;5051709;28;20021;-72
2022/03/29 09:20:04;;;;;;;83.90;40.17;;;12.00;99.90;;;;;;5052292;28;20028;-72
2022/03/29 09:22:39;;;;;;;73.90;38.95;;;12.00;99.90;;;;;;5037289;28;20017;-72
2022/03/29 09:25:05;;;;;;;80.32;38.22;;;12.10;99.90;;;;;;5037196;28;20027;-72
2022/03/29 09:27:51;;;;;;;76.80;37.08;;;12.10;99.90;;;;;;5054515;28;20029;-72
2022/03/29 09:30:17;;;;;;;78.95;37.60;;;12.20;99.90;;;;;;5055212;28;20056;-72
2022/03/29 09:33:05;;;;;;;72.63;37.13;;;12.20;99.90;;;;;;5055249;28;20106;-73
2022/03/29 09:35:32;;;;;;;73.18;36.60;;;12.20;99.90;;;;;;5053322;28;20047;-77
2022/03/29 09:37:59;;;;;;;79.60;38.72;;;12.30;99.60;;;;;;5054270;28;20017;-77
2022/03/29 09:40:38;;;;;;;78.40;37.25;;;12.30;99.50;;;;;;5053770;28;20365;-77
2022/03/29 09:43:10;;;;;;;72.40;36.35;;;12.30;99.50;;;;;;5053922;28;20021;-77
2022/03/29 09:45:45;;;;;;;79.15;38.38;;;12.40;98.90;;;;;;5035961;28;20021;-77
2022/03/29 09:48:26;;;;;;;81.00;39.17;;;12.50;99.60;;;;;;5053963;28;20436;-77
2022/03/29 09:50:57;;;;;;;79.75;39.20;;;12.50;99.00;;;;;;5053860;28;20477;-77
2022/03/29 09:53:43;;;;;;;80.53;39.35;;;12.60;98.10;;;;;;5053839;28;20373;-77
2022/03/29 09:56:11;;;;;;;90.40;41.65;;;12.60;97.70;;;;;;5053803;28;20081;-77
2022/03/29 09:58:38;;;;;;;90.20;41.10;;;12.70;98.70;;;;;;5035889;28;20104;-76
2022/03/29 10:01:05;;;;;;;87.20;41.55;;;12.70;99.00;;;;;;5053442;28;20498;-77
2022/03/29 10:03:36;;;;;;;83.20;38.88;;;12.90;99.80;;;;;;5053554;28;20048;-77
2022/03/29 10:06:05;;;;;;;78.65;39.50;;;13.00;99.30;;;;;;5053124;28;20493;-77
2022/03/29 10:11:22;;;;;;;81.55;40.40;;;13.10;97.80;;;;;;5053373;28;20040;-77
2022/03/29 10:13:49;;;;;;;80.60;40.35;;;13.20;98.50;;;;;;5053497;28;20048;-77
2022/03/29 10:16:16;;;;;;;79.55;38.50;;;13.30;98.20;;;;;;5053354;28;20052;-76
2022/03/29 10:18:44;;;;;;;84.30;41.90;;;13.30;96.40;;;;;;5053105;28;20028;-77
2022/03/29 10:21:13;;;;;;;74.53;38.03;;;13.40;98.00;;;;;;5035151;28;20159;-77
2022/03/29 10:23:39;;;;;;;77.88;38.70;;;13.50;97.80;;;;;;5035200;28;20029;-77
2022/03/29 10:26:06;;;;;;;88.68;39.65;;;13.40;96.90;;;;;;5035179;28;20025;-77
2022/03/29 10:28:32;;;;;;;75.45;37.85;;;13.50;97.20;;;;;;5035465;28;20112;-76
2022/03/29 10:30:58;;;;;;;81.55;40.33;;;13.60;96.90;;;;;;5052228;28;20057;-76
2022/03/29 10:33:31;;;;;;;81.88;40.03;;;13.70;97.60;;;;;;5052573;28;20108;-77
2022/03/29 10:36:05;;;;;;;78.18;38.03;;;13.80;97.60;;;;;;5054043;28;20024;-77
2022/03/29 10:38:43;;;;;;;76.25;39.53;;;13.80;96.70;;;;;;5052856;28;20091;-77
2022/03/29 10:41:44;;;;;;;74.07;37.88;;;13.80;96.50;;;;;;5052851;28;20048;-77
2022/03/29 10:44:11;;;;;;;75.57;38.17;;;13.80;96.10;;;;;;4983219;28;20021;-77
2022/03/29 10:46:38;;;;;;;79.00;40.13;;;14.00;95.80;;;;;;5053053;28;20070;-77
2022/03/29 10:49:22;;;;;;;77.40;39.83;;;14.10;96.20;;;;;;5052593;28;20480;-77
2022/03/29 10:51:51;;;;;;;80.40;40.25;;;14.20;96.20;;;;;;5034671;28;20179;-77
2022/03/29 10:54:36;;;;;;;77.72;39.47;;;14.30;96.50;;;;;;5052781;28;20032;-76
2022/03/29 10:57:06;;;;;;;75.53;39.90;;;14.40;96.90;;;;;;5052633;28;20119;-77
2022/03/29 10:59:34;;;;;;;78.32;39.55;;;14.60;96.70;;;;;;5052695;28;20508;-77
2022/03/29 11:02:19;;;;;;;79.97;38.65;;;14.70;96.40;;;;;;5052603;28;20025;-77
2022/03/29 11:05:09;;;;;;;74.60;39.45;;;14.90;96.30;;;;;;5052690;28;20014;-76
2022/03/29 11:07:52;;;;;;;73.57;38.72;;;15.00;96.10;;;;;;5034648;28;20025;-77
2022/03/29 11:10:23;;;;;;;80.55;39.92;;;15.10;94.90;;;;;;5052359;28;20056;-77
2022/03/29 11:12:51;;;;;;;77.20;39.45;;;15.20;94.90;;;;;;5052450;28;20120;-77
2022/03/29 11:15:47;;;;;;;73.38;37.63;;;15.20;94.10;;;;;;5052215;28;20013;-77
2022/03/29 11:18:30;;;;;;;72.85;34.78;;;15.30;95.30;;;;;;5053014;28;20044;-77
2022/03/29 11:21:02;;;;;;;70.13;35.45;;;15.50;94.70;;;;;;5053375;28;20388;-76
2022/03/29 11:23:33;;;;;;;69.32;36.72;;;15.50;93.60;;;;;;5052764;28;20546;-77
2022/03/29 11:26:13;;;;;;;75.43;37.58;;;15.50;93.20;;;;;;5053531;28;20025;-77
2022/03/29 11:28:50;;;;;;;67.20;35.05;;;15.70;93.00;;;;;;5053539;28;20104;-77
2022/03/29 11:31:16;;;;;;;69.80;35.50;;;15.80;93.10;;;;;;5026843;28;20029;-77
2022/03/29 11:33:45;;;;;;;75.53;37.50;;;15.80;93.20;;;;;;5033592;28;20116;-77
2022/03/29 11:36:12;;;;;;;63.72;34.50;;;15.70;92.50;;;;;;5032848;28;20063;-72
2022/03/29 11:38:38;;;;;;;70.18;36.25;;;15.70;92.70;;;;;;5014110;28;20600;-72
2022/03/29 11:41:04;;;;;;;66.68;33.78;;;15.60;91.80;;;;;;5006766;28;20058;-72
2022/03/29 11:43:32;;;;;;;70.68;37.22;;;15.70;91.10;;;;;;5012472;28;20072;-72
2022/03/29 11:45:58;;;;;;;74.47;36.80;;;15.80;92.30;;;;;;5047313;28;20033;-72
2022/03/29 11:48:26;;;;;;;68.57;36.85;;;15.90;93.10;;;;;;5051336;28;20029;-72
2022/03/29 11:50:53;;;;;;;73.30;34.58;;;16.00;93.00;;;;;;5051626;28;20027;-72
2022/03/29 11:53:23;;;;;;;65.72;36.00;;;16.20;92.90;;;;;;5033808;28;20396;-72
2022/03/29 11:55:53;;;;;;;67.20;36.78;;;16.20;92.40;;;;;;5051433;28;20029;-72
2022/03/29 11:58:27;;;;;;;61.90;33.85;;;16.10;92.00;;;;;;5051498;28;20033;-72
2022/03/29 12:01:09;;;;;;;68.47;35.20;;;16.00;92.10;;;;;;5045998;28;20148;-72
2022/03/29 12:03:38;;;;;;;65.13;34.33;;;16.10;92.10;;;;;;5031614;28;20025;-72
2022/03/29 12:06:06;;;;;;;75.43;34.42;;;16.30;91.80;;;;;;5031489;28;20549;-72
2022/03/29 12:08:47;;;;;;;62.53;33.00;;;16.30;91.70;;;;;;5031491;28;20435;-72
2022/03/29 12:11:17;;;;;;;66.88;34.70;;;16.30;91.80;;;;;;5031069;28;20025;-72
2022/03/29 12:13:45;;;;;;;67.90;34.35;;;16.50;91.70;;;;;;5013673;28;20512;-72
2022/03/29 12:16:24;;;;;;;69.18;33.92;;;16.50;90.40;;;;;;5031141;28;20025;-72
2022/03/29 12:18:51;;;;;;;71.85;35.38;;;16.50;90.50;;;;;;5029402;28;20512;-72
2022/03/29 12:21:22;;;;;;;67.25;33.50;;;16.60;90.70;;;;;;5027632;28;20021;-72
2022/03/29 12:23:57;;;;;;;62.28;32.85;;;16.70;90.30;;;;;;5009319;28;20026;-72
2022/03/29 12:26:23;;;;;;;61.72;32.58;;;16.70;88.00;;;;;;5011013;28;20187;-72
2022/03/29 12:28:49;;;;;;;65.45;32.97;;;16.70;90.20;;;;;;5027375;28;20036;-72
2022/03/29 12:31:17;;;;;;;59.72;33.15;;;16.70;90.90;;;;;;5026774;28;20104;-72
2022/03/29 12:33:44;;;;;;;67.13;33.33;;;16.90;90.00;;;;;;5008827;28;20489;-72
2022/03/29 12:36:16;;;;;;;65.55;32.88;;;16.80;89.90;;;;;;5027120;28;20101;-72
2022/03/29 12:38:47;;;;;;;67.47;35.53;;;16.80;89.10;;;;;;5027187;28;20017;-72
2022/03/29 12:41:30;;;;;;;60.65;33.58;;;16.80;89.60;;;;;;5026788;28;20049;-72
2022/03/29 12:43:56;;;;;;;61.92;31.25;;;16.90;88.10;;;;;;5009054;28;20024;-72
2022/03/29 12:46:22;;;;;;;62.80;32.05;;;16.90;87.10;;;;;;5008439;28;20033;-72